sensor_id;sensor_type;location;lat;lon;timestamp;pressure;altitude;pressure_sealevel;temperature;humidity
250;BME280;109;19.806;-70.704;2023-01-19T00:00:38;101779.41;;;21.49;56.38
250;BME280;109;19.806;-70.704;2023-01-19T00:03:04;101792.66;;;21.53;56.32
250;BME280;109;19.806;-70.704;2023-01-19T00:05:31;101786.44;;;21.53;56.28
250;BME280;109;19.806;-70.704;2023-01-19T00:07:58;101797.19;;;21.48;56.06
250;BME280;109;19.806;-70.704;2023-01-19T00:10:41;101798.00;;;21.52;56.04
250;BME280;109;19.806;-70.704;2023-01-19T00:13:08;101796.31;;;21.48;56.69
250;BME280;109;19.806;-70.704;2023-01-19T00:15:34;101798.09;;;21.47;56.03
250;BME280;109;19.806;-70.704;2023-01-19T00:18:01;101786.56;;;21.47;56.26
250;BME280;109;19.806;-70.704;2023-01-19T00:20:28;101798.97;;;21.48;55.62
250;BME280;109;19.806;-70.704;2023-01-19T00:22:57;101803.59;;;21.41;55.67
250;BME280;109;19.806;-70.704;2023-01-19T00:25:23;101804.47;;;21.42;55.65
250;BME280;109;19.806;-70.704;2023-01-19T00:27:50;101804.53;;;21.39;55.46
250;BME280;109;19.806;-70.704;2023-01-19T00:30:17;101807.09;;;21.43;55.64
250;BME280;109;19.806;-70.704;2023-01-19T00:32:43;101814.22;;;21.43;56.06
250;BME280;109;19.806;-70.704;2023-01-19T00:35:10;101816.81;;;21.46;56.26
250;BME280;109;19.806;-70.704;2023-01-19T00:37:37;101820.50;;;21.39;55.84
250;BME280;109;19.806;-70.704;2023-01-19T00:40:04;101820.50;;;21.39;56.34
250;BME280;109;19.806;-70.704;2023-01-19T00:42:33;101811.88;;;21.28;55.93
250;BME280;109;19.806;-70.704;2023-01-19T00:45:07;101819.03;;;21.26;55.77
250;BME280;109;19.806;-70.704;2023-01-19T00:47:34;101817.22;;;21.28;55.76
250;BME280;109;19.806;-70.704;2023-01-19T00:50:00;101823.50;;;21.23;55.96
250;BME280;109;19.806;-70.704;2023-01-19T00:52:27;101823.53;;;21.22;56.31
250;BME280;109;19.806;-70.704;2023-01-19T00:54:53;101819.81;;;21.31;55.82
250;BME280;109;19.806;-70.704;2023-01-19T00:57:20;101822.53;;;21.28;56.23
250;BME280;109;19.806;-70.704;2023-01-19T00:59:46;101832.34;;;21.26;56.04
250;BME280;109;19.806;-70.704;2023-01-19T01:02:13;101840.34;;;21.26;56.15
250;BME280;109;19.806;-70.704;2023-01-19T01:04:40;101836.75;;;21.27;56.11
250;BME280;109;19.806;-70.704;2023-01-19T01:07:06;101839.38;;;21.30;56.00
250;BME280;109;19.806;-70.704;2023-01-19T01:09:33;101838.47;;;21.31;55.79
250;BME280;109;19.806;-70.704;2023-01-19T01:11:59;101841.13;;;21.31;56.25
250;BME280;109;19.806;-70.704;2023-01-19T01:14:26;101845.66;;;21.26;55.61
250;BME280;109;19.806;-70.704;2023-01-19T01:16:54;101846.53;;;21.26;55.64
250;BME280;109;19.806;-70.704;2023-01-19T01:19:21;101852.75;;;21.27;55.58
250;BME280;109;19.806;-70.704;2023-01-19T01:21:47;101853.63;;;21.27;55.24
250;BME280;109;19.806;-70.704;2023-01-19T01:24:14;101852.72;;;21.28;55.16
250;BME280;109;19.806;-70.704;2023-01-19T01:26:41;101855.28;;;21.33;55.36
250;BME280;109;19.806;-70.704;2023-01-19T01:29:07;101867.66;;;21.34;55.55
250;BME280;109;19.806;-70.704;2023-01-19T01:31:34;101858.91;;;21.29;55.61
250;BME280;109;19.806;-70.704;2023-01-19T01:34:00;101865.13;;;21.29;55.28
250;BME280;109;19.806;-70.704;2023-01-19T01:36:27;101867.03;;;21.22;55.57
250;BME280;109;19.806;-70.704;2023-01-19T01:38:57;101865.31;;;21.20;55.39
250;BME280;109;19.806;-70.704;2023-01-19T01:41:24;101867.09;;;21.19;55.43
250;BME280;109;19.806;-70.704;2023-01-19T01:43:54;101880.53;;;21.13;55.67
250;BME280;109;19.806;-70.704;2023-01-19T01:46:31;101880.56;;;21.10;55.34
250;BME280;109;19.806;-70.704;2023-01-19T01:49:03;101874.25;;;21.17;55.70
250;BME280;109;19.806;-70.704;2023-01-19T01:51:41;101879.44;;;21.22;55.40
250;BME280;109;19.806;-70.704;2023-01-19T01:54:22;101877.84;;;21.15;55.60
250;BME280;109;19.806;-70.704;2023-01-19T01:57:01;101884.81;;;21.20;55.15
250;BME280;109;19.806;-70.704;2023-01-19T01:59:39;101878.75;;;21.12;55.68
250;BME280;109;19.806;-70.704;2023-01-19T02:02:18;101886.78;;;21.09;56.00
250;BME280;109;19.806;-70.704;2023-01-19T02:10:41;101877.91;;;21.09;55.61
250;BME280;109;19.806;-70.704;2023-01-19T02:13:37;101878.66;;;21.18;55.69
250;BME280;109;19.806;-70.704;2023-01-19T02:16:12;101878.69;;;21.17;55.15
250;BME280;109;19.806;-70.704;2023-01-19T02:18:39;101877.81;;;21.16;55.06
250;BME280;109;19.806;-70.704;2023-01-19T02:23:56;101878.09;;;21.01;55.29
250;BME280;109;19.806;-70.704;2023-01-19T02:26:34;101878.94;;;21.03;55.69
250;BME280;109;19.806;-70.704;2023-01-19T02:29:11;101874.56;;;21.01;55.78
250;BME280;109;19.806;-70.704;2023-01-19T02:31:46;101876.28;;;21.03;56.04
250;BME280;109;19.806;-70.704;2023-01-19T02:34:34;101875.19;;;21.12;55.69
250;BME280;109;19.806;-70.704;2023-01-19T02:37:16;101881.59;;;21.03;55.43
250;BME280;109;19.806;-70.704;2023-01-19T02:39:55;101885.28;;;20.96;56.25
250;BME280;109;19.806;-70.704;2023-01-19T02:42:40;101887.69;;;21.08;55.80
250;BME280;109;19.806;-70.704;2023-01-19T02:45:18;101888.53;;;21.13;55.53
250;BME280;109;19.806;-70.704;2023-01-19T02:48:00;101885.97;;;21.07;55.88
250;BME280;109;19.806;-70.704;2023-01-19T02:50:42;101881.50;;;21.08;55.64
250;BME280;109;19.806;-70.704;2023-01-19T03:05:09;101884.31;;;21.00;55.63
250;BME280;109;19.806;-70.704;2023-01-19T03:11:07;101871.44;;;20.79;55.74
250;BME280;109;19.806;-70.704;2023-01-19T03:13:51;101878.59;;;20.77;56.04
250;BME280;109;19.806;-70.704;2023-01-19T03:16:38;101877.66;;;20.79;55.93
250;BME280;109;19.806;-70.704;2023-01-19T03:19:31;101878.38;;;20.86;56.11
250;BME280;109;19.806;-70.704;2023-01-19T03:22:20;101873.00;;;20.89;56.42
250;BME280;109;19.806;-70.704;2023-01-19T03:24:58;101873.00;;;20.91;56.47
250;BME280;109;19.806;-70.704;2023-01-19T03:27:41;101880.16;;;20.87;56.63
250;BME280;109;19.806;-70.704;2023-01-19T03:30:28;101874.81;;;20.88;56.24
250;BME280;109;19.806;-70.704;2023-01-19T03:33:27;101876.59;;;20.88;56.44
250;BME280;109;19.806;-70.704;2023-01-19T03:36:13;101874.88;;;20.84;56.51
250;BME280;109;19.806;-70.704;2023-01-19T03:38:57;101874.81;;;20.87;56.76
250;BME280;109;19.806;-70.704;2023-01-19T03:41:33;101872.19;;;20.85;56.36
250;BME280;109;19.806;-70.704;2023-01-19T03:44:16;101873.84;;;20.93;56.52
250;BME280;109;19.806;-70.704;2023-01-19T03:46:57;101864.22;;;20.84;56.56
250;BME280;109;19.806;-70.704;2023-01-19T03:49:25;101868.75;;;20.80;56.51
250;BME280;109;19.806;-70.704;2023-01-19T03:52:05;101868.69;;;20.82;56.91
250;BME280;109;19.806;-70.704;2023-01-19T03:54:31;101874.19;;;20.74;56.99
250;BME280;109;19.806;-70.704;2023-01-19T03:57:12;101872.38;;;20.76;56.37
250;BME280;109;19.806;-70.704;2023-01-19T03:59:39;101866.91;;;20.82;56.64
250;BME280;109;19.806;-70.704;2023-01-19T04:02:20;101862.41;;;20.87;56.63
250;BME280;109;19.806;-70.704;2023-01-19T04:04:46;101863.34;;;20.83;56.51
250;BME280;109;19.806;-70.704;2023-01-19T04:07:25;101855.53;;;20.76;56.46
250;BME280;109;19.806;-70.704;2023-01-19T04:09:59;101867.88;;;20.80;56.72
250;BME280;109;19.806;-70.704;2023-01-19T04:12:38;101854.59;;;20.80;56.58
250;BME280;109;19.806;-70.704;2023-01-19T04:15:05;101855.53;;;20.76;56.52
250;BME280;109;19.806;-70.704;2023-01-19T04:17:46;101853.84;;;20.72;56.83
250;BME280;109;19.806;-70.704;2023-01-19T04:20:13;101839.59;;;20.74;56.85
250;BME280;109;19.806;-70.704;2023-01-19T04:22:57;101846.91;;;20.63;57.34
250;BME280;109;19.806;-70.704;2023-01-19T04:25:30;101840.69;;;20.64;57.06
250;BME280;109;19.806;-70.704;2023-01-19T04:28:10;101841.78;;;20.54;56.90
250;BME280;109;19.806;-70.704;2023-01-19T04:30:37;101835.50;;;20.57;56.92
250;BME280;109;19.806;-70.704;2023-01-19T04:33:26;101835.41;;;20.63;57.48
250;BME280;109;19.806;-70.704;2023-01-19T04:36:07;101836.50;;;20.52;56.96
250;BME280;109;19.806;-70.704;2023-01-19T04:38:47;101837.19;;;20.62;56.56
250;BME280;109;19.806;-70.704;2023-01-19T04:41:14;101843.47;;;20.58;57.07
250;BME280;109;19.806;-70.704;2023-01-19T04:43:53;101842.66;;;20.55;57.00
250;BME280;109;19.806;-70.704;2023-01-19T04:46:20;101840.66;;;20.66;56.89
250;BME280;109;19.806;-70.704;2023-01-19T04:49:00;101843.25;;;20.69;57.33
250;BME280;109;19.806;-70.704;2023-01-19T04:51:40;101839.75;;;20.67;57.49
250;BME280;109;19.806;-70.704;2023-01-19T04:54:07;101832.75;;;20.61;56.92
250;BME280;109;19.806;-70.704;2023-01-19T04:56:47;101835.44;;;20.61;57.28
250;BME280;109;19.806;-70.704;2023-01-19T04:59:13;101828.41;;;20.57;56.86
250;BME280;109;19.806;-70.704;2023-01-19T05:01:53;101830.09;;;20.61;57.34
250;BME280;109;19.806;-70.704;2023-01-19T05:04:21;101828.41;;;20.57;57.16
250;BME280;109;19.806;-70.704;2023-01-19T05:07:01;101823.03;;;20.60;56.94
250;BME280;109;19.806;-70.704;2023-01-19T05:09:28;101822.19;;;20.57;56.92
250;BME280;109;19.806;-70.704;2023-01-19T05:12:08;101816.88;;;20.57;57.34
250;BME280;109;19.806;-70.704;2023-01-19T05:14:34;101812.41;;;20.59;56.89
250;BME280;109;19.806;-70.704;2023-01-19T05:17:14;101808.84;;;20.60;57.40
250;BME280;109;19.806;-70.704;2023-01-19T05:19:41;101808.09;;;20.55;57.04
250;BME280;109;19.806;-70.704;2023-01-19T05:22:21;101808.91;;;20.57;57.52
250;BME280;109;19.806;-70.704;2023-01-19T05:24:55;101812.56;;;20.51;57.12
250;BME280;109;19.806;-70.704;2023-01-19T05:27:35;101801.97;;;20.49;57.04
250;BME280;109;19.806;-70.704;2023-01-19T05:30:02;101803.78;;;20.44;57.30
250;BME280;109;19.806;-70.704;2023-01-19T05:32:48;101804.69;;;20.43;57.30
250;BME280;109;19.806;-70.704;2023-01-19T05:35:21;101794.91;;;20.45;57.18
250;BME280;109;19.806;-70.704;2023-01-19T05:38:03;101798.50;;;20.43;57.02
250;BME280;109;19.806;-70.704;2023-01-19T05:40:29;101797.31;;;20.61;57.23
250;BME280;109;19.806;-70.704;2023-01-19T05:43:09;101790.22;;;20.61;56.78
250;BME280;109;19.806;-70.704;2023-01-19T05:45:35;101793.69;;;20.65;57.18
250;BME280;109;19.806;-70.704;2023-01-19T05:48:16;101783.97;;;20.62;56.73
250;BME280;109;19.806;-70.704;2023-01-19T05:50:43;101777.78;;;20.62;56.94
250;BME280;109;19.806;-70.704;2023-01-19T05:53:24;101775.38;;;20.49;57.30
250;BME280;109;19.806;-70.704;2023-01-19T05:55:50;101770.06;;;20.46;57.48
250;BME280;109;19.806;-70.704;2023-01-19T05:58:31;101770.03;;;20.51;57.31
250;BME280;109;19.806;-70.704;2023-01-19T06:01:03;101762.94;;;20.50;57.29
250;BME280;109;19.806;-70.704;2023-01-19T06:03:44;101755.00;;;20.47;57.02
250;BME280;109;19.806;-70.704;2023-01-19T06:06:10;101755.03;;;20.45;56.98
250;BME280;109;19.806;-70.704;2023-01-19T06:08:50;101749.69;;;20.45;56.99
250;BME280;109;19.806;-70.704;2023-01-19T06:11:30;101755.03;;;20.45;57.07
250;BME280;109;19.806;-70.704;2023-01-19T06:14:04;101750.56;;;20.49;56.76
250;BME280;109;19.806;-70.704;2023-01-19T06:16:43;101743.47;;;20.49;56.90
250;BME280;109;19.806;-70.704;2023-01-19T06:19:10;101739.00;;;20.50;56.15
250;BME280;109;19.806;-70.704;2023-01-19T06:21:49;101735.44;;;20.52;55.99
250;BME280;109;19.806;-70.704;2023-01-19T06:24:17;101727.34;;;20.56;56.23
250;BME280;109;19.806;-70.704;2023-01-19T06:26:58;101720.31;;;20.55;55.68
250;BME280;109;19.806;-70.704;2023-01-19T06:29:26;101723.91;;;20.52;55.65
250;BME280;109;19.806;-70.704;2023-01-19T06:32:12;101714.03;;;20.57;55.94
250;BME280;109;19.806;-70.704;2023-01-19T06:34:51;101719.44;;;20.54;56.05
250;BME280;109;19.806;-70.704;2023-01-19T06:37:31;101715.97;;;20.49;55.74
250;BME280;109;19.806;-70.704;2023-01-19T06:39:58;101711.25;;;20.63;55.95
250;BME280;109;19.806;-70.704;2023-01-19T06:42:39;101711.28;;;20.62;56.11
250;BME280;109;19.806;-70.704;2023-01-19T06:45:05;101706.13;;;20.54;55.94
250;BME280;109;19.806;-70.704;2023-01-19T06:47:48;101700.94;;;20.48;56.15
250;BME280;109;19.806;-70.704;2023-01-19T06:50:15;101699.16;;;20.47;56.06
250;BME280;109;19.806;-70.704;2023-01-19T06:52:55;101697.41;;;20.46;56.50
250;BME280;109;19.806;-70.704;2023-01-19T06:55:21;101701.56;;;20.59;56.59
250;BME280;109;19.806;-70.704;2023-01-19T06:58:02;101690.22;;;20.52;56.65
250;BME280;109;19.806;-70.704;2023-01-19T07:00:28;101683.13;;;20.51;56.81
250;BME280;109;19.806;-70.704;2023-01-19T07:03:22;101685.81;;;20.50;56.74
250;BME280;109;19.806;-70.704;2023-01-19T07:05:54;101680.56;;;20.45;57.01
250;BME280;109;19.806;-70.704;2023-01-19T07:08:36;101678.53;;;20.58;56.96
250;BME280;109;19.806;-70.704;2023-01-19T07:11:08;101674.91;;;20.62;57.12
250;BME280;109;19.806;-70.704;2023-01-19T07:13:53;101682.06;;;20.60;56.81
250;BME280;109;19.806;-70.704;2023-01-19T07:16:26;101673.13;;;20.63;56.85
250;BME280;109;19.806;-70.704;2023-01-19T07:19:06;101673.16;;;20.61;56.65
250;BME280;109;19.806;-70.704;2023-01-19T07:21:46;101672.28;;;20.61;56.63
250;BME280;109;19.806;-70.704;2023-01-19T07:24:13;101668.78;;;20.59;57.41
250;BME280;109;19.806;-70.704;2023-01-19T07:26:52;101668.44;;;20.32;57.21
250;BME280;109;19.806;-70.704;2023-01-19T07:29:19;101661.28;;;20.36;57.16
250;BME280;109;19.806;-70.704;2023-01-19T07:32:06;101665.78;;;20.32;57.69
250;BME280;109;19.806;-70.704;2023-01-19T07:34:45;101663.75;;;20.43;57.57
250;BME280;109;19.806;-70.704;2023-01-19T07:37:25;101664.69;;;20.42;57.45
250;BME280;109;19.806;-70.704;2023-01-19T07:39:52;101664.81;;;20.36;57.37
250;BME280;109;19.806;-70.704;2023-01-19T07:42:31;101661.19;;;20.40;57.46
250;BME280;109;19.806;-70.704;2023-01-19T07:44:58;101655.88;;;20.40;57.43
250;BME280;109;19.806;-70.704;2023-01-19T07:47:38;101660.34;;;20.38;57.46
250;BME280;109;19.806;-70.704;2023-01-19T07:50:05;101663.06;;;20.35;57.83
250;BME280;109;19.806;-70.704;2023-01-19T07:52:46;101656.13;;;20.28;57.48
250;BME280;109;19.806;-70.704;2023-01-19T07:55:15;101650.53;;;20.42;57.51
250;BME280;109;19.806;-70.704;2023-01-19T07:57:55;101656.84;;;20.35;57.49
250;BME280;109;19.806;-70.704;2023-01-19T08:00:30;101655.72;;;20.48;57.60
250;BME280;109;19.806;-70.704;2023-01-19T08:03:13;101652.41;;;20.35;57.55
250;BME280;109;19.806;-70.704;2023-01-19T08:05:39;101648.94;;;20.32;57.39
250;BME280;109;19.806;-70.704;2023-01-19T08:08:19;101649.06;;;20.27;57.37
250;BME280;109;19.806;-70.704;2023-01-19T08:10:49;101645.22;;;20.40;57.07
250;BME280;109;19.806;-70.704;2023-01-19T08:13:29;101642.69;;;20.34;57.17
250;BME280;109;19.806;-70.704;2023-01-19T08:15:55;101645.28;;;20.37;57.39
250;BME280;109;19.806;-70.704;2023-01-19T08:18:35;101645.41;;;20.31;57.39
250;BME280;109;19.806;-70.704;2023-01-19T08:21:02;101636.50;;;20.34;57.36
250;BME280;109;19.806;-70.704;2023-01-19T08:23:42;101640.13;;;20.30;57.05
250;BME280;109;19.806;-70.704;2023-01-19T08:26:29;101631.16;;;20.35;57.40
250;BME280;109;19.806;-70.704;2023-01-19T08:29:08;101644.53;;;20.31;56.87
250;BME280;109;19.806;-70.704;2023-01-19T08:31:55;101643.91;;;20.18;57.05
250;BME280;109;19.806;-70.704;2023-01-19T08:34:34;101641.19;;;20.21;57.32
250;BME280;109;19.806;-70.704;2023-01-19T08:37:14;101636.66;;;20.26;57.68
250;BME280;109;19.806;-70.704;2023-01-19T08:39:41;101642.91;;;20.24;57.02
250;BME280;109;19.806;-70.704;2023-01-19T08:42:20;101642.84;;;20.28;57.44
250;BME280;109;19.806;-70.704;2023-01-19T08:44:47;101644.53;;;20.31;57.41
250;BME280;109;19.806;-70.704;2023-01-19T08:47:26;101651.75;;;20.26;57.55
250;BME280;109;19.806;-70.704;2023-01-19T08:49:54;101650.03;;;20.22;57.70
250;BME280;109;19.806;-70.704;2023-01-19T08:52:35;101650.97;;;20.19;57.58
250;BME280;109;19.806;-70.704;2023-01-19T08:55:01;101652.91;;;20.12;57.47
250;BME280;109;19.806;-70.704;2023-01-19T08:57:43;101656.47;;;20.10;57.77
250;BME280;109;19.806;-70.704;2023-01-19T09:00:18;101654.72;;;20.10;57.55
250;BME280;109;19.806;-70.704;2023-01-19T09:02:59;101656.28;;;20.19;57.76
250;BME280;109;19.806;-70.704;2023-01-19T09:05:38;101662.50;;;20.18;57.51
250;BME280;109;19.806;-70.704;2023-01-19T09:08:19;101654.53;;;20.18;57.48
250;BME280;109;19.806;-70.704;2023-01-19T09:10:50;101651.13;;;20.13;57.25
250;BME280;109;19.806;-70.704;2023-01-19T09:13:31;101659.03;;;20.16;57.60
250;BME280;109;19.806;-70.704;2023-01-19T09:15:57;101660.75;;;20.17;57.36
250;BME280;109;19.806;-70.704;2023-01-19T09:18:40;101663.38;;;20.20;57.38
250;BME280;109;19.806;-70.704;2023-01-19T09:21:07;101676.63;;;20.22;56.89
250;BME280;109;19.806;-70.704;2023-01-19T09:23:50;101675.75;;;20.21;56.76
250;BME280;109;19.806;-70.704;2023-01-19T09:26:16;101671.38;;;20.18;57.11
250;BME280;109;19.806;-70.704;2023-01-19T09:28:56;101671.38;;;20.18;57.26
250;BME280;109;19.806;-70.704;2023-01-19T09:31:24;101680.38;;;20.11;58.15
250;BME280;109;19.806;-70.704;2023-01-19T09:34:10;101685.81;;;20.04;58.36
250;BME280;109;19.806;-70.704;2023-01-19T09:36:51;101681.72;;;19.89;58.71
250;BME280;109;19.806;-70.704;2023-01-19T09:39:17;101687.13;;;19.81;59.07
250;BME280;109;19.806;-70.704;2023-01-19T09:42:41;101687.34;;;19.68;59.64
250;BME280;109;19.806;-70.704;2023-01-19T09:45:26;101694.59;;;19.60;59.73
250;BME280;109;19.806;-70.704;2023-01-19T09:48:23;101700.88;;;19.53;59.61
250;BME280;109;19.806;-70.704;2023-01-19T09:51:04;101698.31;;;19.50;59.73
250;BME280;109;19.806;-70.704;2023-01-19T09:54:10;101701.13;;;19.39;60.21
250;BME280;109;19.806;-70.704;2023-01-19T09:56:47;101708.28;;;19.34;60.44
250;BME280;109;19.806;-70.704;2023-01-19T09:59:25;101711.88;;;19.30;60.33
250;BME280;109;19.806;-70.704;2023-01-19T10:10:08;101709.34;;;19.24;61.19
250;BME280;109;19.806;-70.704;2023-01-19T10:16:01;101716.44;;;19.22;61.02
250;BME280;109;19.806;-70.704;2023-01-19T10:18:44;101721.75;;;19.23;61.02
250;BME280;109;19.806;-70.704;2023-01-19T10:21:30;101727.91;;;19.25;61.33
250;BME280;109;19.806;-70.704;2023-01-19T10:24:16;101728.69;;;19.30;60.77
250;BME280;109;19.806;-70.704;2023-01-19T10:26:56;101729.56;;;19.32;60.60
250;BME280;109;19.806;-70.704;2023-01-19T10:29:31;101740.19;;;19.31;60.77
250;BME280;109;19.806;-70.704;2023-01-19T10:35:50;101751.75;;;19.27;60.76
250;BME280;109;19.806;-70.704;2023-01-19T10:38:32;101750.06;;;19.23;60.88
250;BME280;109;19.806;-70.704;2023-01-19T10:41:17;101761.56;;;19.22;60.92
250;BME280;109;19.806;-70.704;2023-01-19T10:44:00;101770.31;;;19.27;60.77
250;BME280;109;19.806;-70.704;2023-01-19T10:46:43;101772.09;;;19.26;60.87
250;BME280;109;19.806;-70.704;2023-01-19T10:49:40;101770.31;;;19.27;60.78
250;BME280;109;19.806;-70.704;2023-01-19T10:52:34;101775.69;;;19.24;60.89
250;BME280;109;19.806;-70.704;2023-01-19T10:55:27;101775.72;;;19.22;60.72
250;BME280;109;19.806;-70.704;2023-01-19T10:57:56;101782.81;;;19.20;61.09
250;BME280;109;19.806;-70.704;2023-01-19T11:00:40;101785.50;;;19.17;61.33
250;BME280;109;19.806;-70.704;2023-01-19T11:03:39;101789.97;;;19.15;61.33
250;BME280;109;19.806;-70.704;2023-01-19T11:08:45;101789.06;;;19.16;61.44
250;BME280;109;19.806;-70.704;2023-01-19T11:11:12;101790.84;;;19.16;61.42
250;BME280;109;19.806;-70.704;2023-01-19T11:13:40;101787.28;;;19.17;61.19
250;BME280;109;19.806;-70.704;2023-01-19T11:16:28;101800.56;;;19.17;60.99
250;BME280;109;19.806;-70.704;2023-01-19T11:18:57;101804.13;;;19.12;61.61
250;BME280;109;19.806;-70.704;2023-01-19T11:21:28;101806.81;;;19.09;61.59
250;BME280;109;19.806;-70.704;2023-01-19T11:24:00;101812.13;;;19.09;61.53
250;BME280;109;19.806;-70.704;2023-01-19T11:26:42;101810.44;;;19.02;61.48
250;BME280;109;19.806;-70.704;2023-01-19T11:29:21;101814.84;;;19.05;61.46
250;BME280;109;19.806;-70.704;2023-01-19T11:31:50;101822.84;;;19.00;61.44
250;BME280;109;19.806;-70.704;2023-01-19T11:37:03;101824.56;;;19.04;61.52
250;BME280;109;19.806;-70.704;2023-01-19T11:39:33;101828.09;;;19.05;61.49
250;BME280;109;19.806;-70.704;2023-01-19T11:42:11;101843.94;;;19.14;61.34
250;BME280;109;19.806;-70.704;2023-01-19T11:45:30;101843.88;;;19.20;61.58
250;BME280;109;19.806;-70.704;2023-01-19T11:47:49;101858.88;;;19.23;61.78
250;BME280;109;19.806;-70.704;2023-01-19T11:50:28;101860.56;;;19.28;61.97
250;BME280;109;19.806;-70.704;2023-01-19T11:58:04;101855.72;;;19.59;60.89
250;BME280;109;19.806;-70.704;2023-01-19T12:00:43;101868.66;;;19.82;60.89
250;BME280;109;19.806;-70.704;2023-01-19T12:05:47;101873.25;;;20.28;60.36
250;BME280;109;19.806;-70.704;2023-01-19T12:08:19;101874.84;;;20.38;60.25
250;BME280;109;19.806;-70.704;2023-01-19T12:10:49;101890.59;;;20.51;59.83
250;BME280;109;19.806;-70.704;2023-01-19T12:13:20;101884.09;;;20.68;60.09
250;BME280;109;19.806;-70.704;2023-01-19T12:15:52;101890.97;;;20.79;59.90
250;BME280;109;19.806;-70.704;2023-01-19T12:18:27;101895.25;;;20.86;59.60
250;BME280;109;19.806;-70.704;2023-01-19T12:20:55;101895.00;;;20.99;59.38
250;BME280;109;19.806;-70.704;2023-01-19T12:26:24;101910.66;;;21.17;59.58
250;BME280;109;19.806;-70.704;2023-01-19T12:28:58;101914.88;;;21.26;58.79
250;BME280;109;19.806;-70.704;2023-01-19T12:31:27;101919.19;;;21.33;58.69
250;BME280;109;19.806;-70.704;2023-01-19T12:33:54;101925.44;;;21.32;58.05
250;BME280;109;19.806;-70.704;2023-01-19T12:41:42;101943.78;;;21.45;58.92
250;BME280;109;19.806;-70.704;2023-01-19T12:46:47;101948.59;;;21.27;58.45
250;BME280;109;19.806;-70.704;2023-01-19T12:49:28;101954.75;;;21.30;58.51
250;BME280;109;19.806;-70.704;2023-01-19T12:52:31;101962.47;;;21.44;58.82
250;BME280;109;19.806;-70.704;2023-01-19T12:55:14;101960.56;;;21.49;58.70
250;BME280;109;19.806;-70.704;2023-01-19T12:57:57;101961.28;;;21.57;58.23
250;BME280;109;19.806;-70.704;2023-01-19T13:03:03;101962.81;;;21.69;59.25
250;BME280;109;19.806;-70.704;2023-01-19T13:21:34;101963.66;;;22.82;56.34
250;BME280;109;19.806;-70.704;2023-01-19T13:24:12;101962.59;;;22.89;55.78
250;BME280;109;19.806;-70.704;2023-01-19T13:26:55;101969.50;;;22.96;55.14
250;BME280;109;19.806;-70.704;2023-01-19T13:29:31;101961.22;;;23.07;55.77
250;BME280;109;19.806;-70.704;2023-01-19T13:32:01;101961.69;;;23.22;55.62
250;BME280;109;19.806;-70.704;2023-01-19T13:34:34;101972.25;;;23.27;54.10
250;BME280;109;19.806;-70.704;2023-01-19T13:37:05;101965.03;;;23.29;54.02
250;BME280;109;19.806;-70.704;2023-01-19T13:39:40;101972.66;;;23.43;53.27
250;BME280;109;19.806;-70.704;2023-01-19T13:42:33;101969.88;;;23.47;53.51
250;BME280;109;19.806;-70.704;2023-01-19T13:45:26;101967.38;;;23.41;52.81
250;BME280;109;19.806;-70.704;2023-01-19T13:47:52;101964.22;;;23.58;52.98
250;BME280;109;19.806;-70.704;2023-01-19T13:50:25;101969.31;;;23.67;52.87
250;BME280;109;19.806;-70.704;2023-01-19T13:52:52;101970.44;;;23.58;52.44
250;BME280;109;19.806;-70.704;2023-01-19T13:55:23;101987.84;;;23.73;52.58
250;BME280;109;19.806;-70.704;2023-01-19T13:57:50;101990.03;;;23.88;52.72
250;BME280;109;19.806;-70.704;2023-01-19T14:00:19;101994.88;;;24.05;52.60
250;BME280;109;19.806;-70.704;2023-01-19T14:05:42;101997.28;;;23.85;51.79
250;BME280;109;19.806;-70.704;2023-01-19T14:10:43;101987.38;;;24.18;52.64
250;BME280;109;19.806;-70.704;2023-01-19T14:13:17;101997.25;;;24.14;52.06
250;BME280;109;19.806;-70.704;2023-01-19T14:15:46;101994.13;;;24.00;51.60
250;BME280;109;19.806;-70.704;2023-01-19T14:21:10;101989.28;;;23.83;51.42
250;BME280;109;19.806;-70.704;2023-01-19T14:23:46;101991.81;;;23.89;53.02
250;BME280;109;19.806;-70.704;2023-01-19T14:31:47;101981.78;;;23.96;52.40
250;BME280;109;19.806;-70.704;2023-01-19T14:34:43;101984.97;;;24.07;53.17
250;BME280;109;19.806;-70.704;2023-01-19T14:37:17;101987.16;;;24.24;52.12
250;BME280;109;19.806;-70.704;2023-01-19T14:39:48;101987.69;;;24.35;51.95
250;BME280;109;19.806;-70.704;2023-01-19T14:42:17;101978.69;;;24.37;52.08
250;BME280;109;19.806;-70.704;2023-01-19T14:44:49;101983.13;;;24.38;52.01
250;BME280;109;19.806;-70.704;2023-01-19T14:47:40;101982.72;;;24.23;52.50
250;BME280;109;19.806;-70.704;2023-01-19T14:53:35;101976.88;;;24.38;52.54
250;BME280;109;19.806;-70.704;2023-01-19T14:55:48;101993.28;;;24.27;53.08
250;BME280;109;19.806;-70.704;2023-01-19T14:58:18;101979.88;;;24.29;53.07
250;BME280;109;19.806;-70.704;2023-01-19T15:11:52;101971.56;;;24.36;53.95
250;BME280;109;19.806;-70.704;2023-01-19T15:14:19;101970.50;;;24.42;54.14
250;BME280;109;19.806;-70.704;2023-01-19T15:16:47;101965.91;;;24.46;54.32
250;BME280;109;19.806;-70.704;2023-01-19T15:19:15;101972.72;;;24.29;52.82
250;BME280;109;19.806;-70.704;2023-01-19T15:21:42;101960.22;;;24.30;53.29
250;BME280;109;19.806;-70.704;2023-01-19T15:24:12;101958.16;;;24.38;54.34
250;BME280;109;19.806;-70.704;2023-01-19T15:26:40;101960.69;;;24.43;54.25
250;BME280;109;19.806;-70.704;2023-01-19T15:29:23;101956.41;;;24.37;54.32
250;BME280;109;19.806;-70.704;2023-01-19T15:31:50;101957.13;;;24.42;54.55
250;BME280;109;19.806;-70.704;2023-01-19T15:34:17;101944.63;;;24.43;54.09
250;BME280;109;19.806;-70.704;2023-01-19T15:36:43;101946.88;;;24.55;54.71
250;BME280;109;19.806;-70.704;2023-01-19T15:39:10;101943.97;;;24.61;53.82
250;BME280;109;19.806;-70.704;2023-01-19T15:41:37;101940.34;;;24.63;53.78